createdAt,value
2023-01-28T00:00:09.709Z,97849.25
2023-01-28T00:02:37.227Z,97849.50
2023-01-28T00:05:05.495Z,97848.44
2023-01-28T00:07:32.962Z,97845.97
2023-01-28T00:10:00.444Z,97847.41
2023-01-28T00:12:28.041Z,97839.75
2023-01-28T00:14:56.985Z,97839.75
2023-01-28T00:17:24.480Z,97840.34
2023-01-28T00:19:52.025Z,97831.00
2023-01-28T00:22:19.906Z,97826.88
2023-01-28T00:24:47.400Z,97826.03
2023-01-28T00:27:14.913Z,97832.25
2023-01-28T00:29:42.418Z,97822.09
2023-01-28T00:32:11.397Z,97819.81
2023-01-28T00:34:38.963Z,97813.59
2023-01-28T00:37:08.633Z,97816.09
2023-01-28T00:39:36.152Z,97826.88
2023-01-28T00:42:03.681Z,97815.88
2023-01-28T00:44:31.182Z,97814.44
2023-01-28T00:46:58.667Z,97813.19
2023-01-28T00:49:27.585Z,97808.59
2023-01-28T00:51:55.046Z,97801.53
2023-01-28T00:54:22.482Z,97801.34
2023-01-28T00:56:49.929Z,97799.06
2023-01-28T00:59:17.523Z,97805.28
2023-01-28T01:01:45.289Z,97809.44
2023-01-28T01:04:12.882Z,97806.94
2023-01-28T01:06:41.913Z,97797.41
2023-01-28T01:09:11.794Z,97799.06
2023-01-28T01:11:41.260Z,97807.16
2023-01-28T01:14:11.399Z,97803.19
2023-01-28T01:16:40.831Z,97796.16
2023-01-28T01:19:08.952Z,97794.50
2023-01-28T01:21:36.824Z,97790.97
2023-01-28T01:24:06.725Z,97802.59
2023-01-28T01:26:33.861Z,97807.78
2023-01-28T01:29:01.460Z,97800.72
2023-01-28T01:31:29.020Z,97810.69
2023-01-28T01:33:56.523Z,97807.56
2023-01-28T01:36:26.887Z,97809.41
2023-01-28T01:38:54.914Z,97803.63
2023-01-28T01:41:29.758Z,97803.00
2023-01-28T01:44:00.371Z,97816.09
2023-01-28T01:46:36.552Z,97816.72
2023-01-28T01:49:12.707Z,97809.84
2023-01-28T01:51:41.070Z,97809.63
2023-01-28T01:54:09.129Z,97813.19
2023-01-28T01:56:43.082Z,97814.00
2023-01-28T01:59:12.959Z,97814.00
2023-01-28T02:01:40.834Z,97816.69
2023-01-28T02:04:13.960Z,97810.69
2023-01-28T02:06:42.045Z,97819.59
2023-01-28T02:09:24.036Z,97815.84
2023-01-28T02:11:56.572Z,97809.03
2023-01-28T02:14:31.341Z,97815.47
2023-01-28T02:17:01.363Z,97825.41
2023-01-28T02:19:36.924Z,97825.22
2023-01-28T02:22:33.936Z,97826.88
2023-01-28T02:25:28.683Z,97823.56
2023-01-28T02:28:13.634Z,97829.97
2023-01-28T02:30:50.186Z,97832.25
2023-01-28T02:33:26.933Z,97831.44
2023-01-28T02:35:56.227Z,97829.16
2023-01-28T02:38:29.666Z,97831.84
2023-01-28T02:41:05.171Z,97825.59
2023-01-28T02:43:36.464Z,97830.19
2023-01-28T02:46:14.225Z,97831.00
2023-01-28T02:48:42.000Z,97840.13
2023-01-28T02:51:21.584Z,97842.81
2023-01-28T02:53:57.561Z,97840.97
2023-01-28T02:56:35.920Z,97834.97
2023-01-28T02:59:13.590Z,97831.25
2023-01-28T03:01:48.112Z,97820.47
2023-01-28T03:04:22.820Z,97814.44
2023-01-28T03:06:57.197Z,97823.53
2023-01-28T03:09:26.122Z,97817.13
2023-01-28T03:11:58.173Z,97820.84
2023-01-28T03:14:28.577Z,97815.25
2023-01-28T03:16:59.907Z,97809.03
2023-01-28T03:19:27.499Z,97813.59
2023-01-28T03:21:57.036Z,97821.88
2023-01-28T03:24:29.031Z,97831.88
2023-01-28T03:27:03.941Z,97836.97
2023-01-28T03:29:34.807Z,97840.47
2023-01-28T03:32:06.514Z,97833.44
2023-01-28T03:34:34.631Z,97824.94
2023-01-28T03:37:02.892Z,97834.38
2023-01-28T03:39:50.998Z,97837.28
2023-01-28T03:42:19.523Z,97837.28
2023-01-28T03:45:15.991Z,97839.34
2023-01-28T03:47:46.819Z,97840.00
2023-01-28T03:50:14.388Z,97833.75
2023-01-28T03:52:56.333Z,97837.50
2023-01-28T03:55:29.103Z,97844.09
2023-01-28T03:57:56.633Z,97841.63
2023-01-28T04:00:25.758Z,97835.84
2023-01-28T04:02:55.479Z,97847.25
2023-01-28T04:05:23.270Z,97845.38
2023-01-28T04:07:54.810Z,97843.50
2023-01-28T04:10:41.070Z,97846.81
2023-01-28T04:13:19.805Z,97855.31
2023-01-28T04:15:49.737Z,97848.88
2023-01-28T04:18:17.626Z,97855.53
2023-01-28T04:20:49.102Z,97846.41
2023-01-28T04:23:17.837Z,97839.34
2023-01-28T04:25:45.833Z,97851.16
2023-01-28T04:28:13.525Z,97854.50
2023-01-28T04:30:41.179Z,97860.69
2023-01-28T04:33:10.421Z,97867.13
2023-01-28T04:35:45.306Z,97865.28
2023-01-28T04:38:33.053Z,97868.00
2023-01-28T04:41:06.926Z,97872.13
2023-01-28T04:43:36.457Z,97854.50
2023-01-28T04:46:29.518Z,97865.47
2023-01-28T04:49:26.014Z,97865.28
2023-01-28T04:52:13.793Z,97872.72
2023-01-28T04:55:09.534Z,97865.28
2023-01-28T04:57:37.485Z,97869.03
2023-01-28T05:00:08.820Z,97867.13
2023-01-28T05:02:36.767Z,97862.97
2023-01-28T05:05:07.195Z,97862.59
2023-01-28T05:07:53.031Z,97866.53
2023-01-28T05:10:21.248Z,97870.44
2023-01-28T05:12:49.631Z,97863.63
2023-01-28T05:15:18.452Z,97872.53
2023-01-28T05:17:46.941Z,97873.78
2023-01-28T05:20:18.230Z,97870.66
2023-01-28T05:22:48.205Z,97866.31
2023-01-28T05:25:25.092Z,97875.03
2023-01-28T05:27:52.893Z,97875.84
2023-01-28T05:30:21.249Z,97874.78
2023-01-28T05:32:49.438Z,97883.31
2023-01-28T05:35:22.897Z,97890.78
2023-01-28T05:37:51.974Z,97894.94
2023-01-28T05:40:20.289Z,97893.25
2023-01-28T05:42:48.333Z,97897.00
2023-01-28T05:45:54.344Z,97902.59
2023-01-28T05:48:25.877Z,97912.78
2023-01-28T05:51:21.144Z,97917.56
2023-01-28T05:53:55.165Z,97921.69
2023-01-28T05:56:23.569Z,97915.69
2023-01-28T05:58:51.135Z,97916.94
2023-01-28T06:01:19.119Z,97908.44
2023-01-28T06:03:50.995Z,97919.00
2023-01-28T06:06:20.842Z,97916.09
2023-01-28T06:08:48.927Z,97920.03
2023-01-28T06:11:23.682Z,97921.47
2023-01-28T06:13:54.706Z,97924.19
2023-01-28T06:16:25.102Z,97927.72
2023-01-28T06:19:13.490Z,97930.63
2023-01-28T06:21:44.597Z,97937.88
2023-01-28T06:24:13.181Z,97948.47
2023-01-28T06:26:42.158Z,97953.00
2023-01-28T06:29:10.544Z,97950.13
2023-01-28T06:31:38.282Z,97950.13
2023-01-28T06:34:05.767Z,97952.38
2023-01-28T06:36:33.454Z,97944.28
2023-01-28T06:39:02.513Z,97948.25
2023-01-28T06:41:30.442Z,97949.06
2023-01-28T06:43:58.008Z,97958.41
2023-01-28T06:46:26.235Z,97960.09
2023-01-28T06:48:54.539Z,97965.06
2023-01-28T06:51:22.384Z,97957.59
2023-01-28T06:53:50.465Z,97960.50
2023-01-28T06:56:20.673Z,97968.19
2023-01-28T06:58:48.816Z,97957.16
2023-01-28T07:01:17.354Z,97958.00
2023-01-28T07:03:45.205Z,97958.19
2023-01-28T07:06:14.036Z,97955.50
2023-01-28T07:08:42.167Z,97954.06
2023-01-28T07:11:09.758Z,97961.94
2023-01-28T07:13:38.758Z,97962.56
2023-01-28T07:16:08.398Z,97960.28
2023-01-28T07:18:36.519Z,97959.84
2023-01-28T07:21:04.834Z,97962.56
2023-01-28T07:23:32.391Z,97966.91
2023-01-28T07:26:02.718Z,97962.56
2023-01-28T07:28:30.679Z,97965.88
2023-01-28T07:31:00.232Z,97962.34
2023-01-28T07:33:28.301Z,97966.72
2023-01-28T07:35:56.272Z,97975.44
2023-01-28T07:38:25.123Z,97960.47
2023-01-28T07:40:53.629Z,97962.16
2023-01-28T07:43:21.897Z,97961.31
2023-01-28T07:45:50.825Z,97971.25
2023-01-28T07:48:20.936Z,97968.56
2023-01-28T07:50:48.361Z,97975.44
2023-01-28T07:53:16.478Z,97976.88
2023-01-28T07:55:44.467Z,97977.31
2023-01-28T07:58:12.802Z,97978.34
2023-01-28T08:00:40.626Z,97981.44
2023-01-28T08:03:14.864Z,97981.69
2023-01-28T08:05:47.815Z,97982.72
2023-01-28T08:08:16.552Z,97977.69
2023-01-28T08:10:44.342Z,97976.91
2023-01-28T08:13:14.050Z,97969.22
2023-01-28T08:15:42.055Z,97977.50
2023-01-28T08:18:11.567Z,97969.00
2023-01-28T08:20:39.803Z,97969.84
2023-01-28T08:23:11.958Z,97979.16
2023-01-28T08:25:39.480Z,97973.34
2023-01-28T08:28:07.544Z,97974.22
2023-01-28T08:30:36.290Z,97974.63
2023-01-28T08:33:04.842Z,97972.75
2023-01-28T08:35:33.705Z,97970.03
2023-01-28T08:38:03.002Z,97970.03
2023-01-28T08:40:33.455Z,97974.22
2023-01-28T08:43:01.656Z,97969.63
2023-01-28T08:45:29.930Z,97980.22
2023-01-28T08:47:59.947Z,97975.88
2023-01-28T08:50:30.210Z,97981.66
2023-01-28T08:52:59.623Z,97978.97
2023-01-28T08:55:28.701Z,97977.72
2023-01-28T08:57:58.758Z,97974.22
2023-01-28T09:00:27.503Z,97975.84
2023-01-28T09:02:55.733Z,97973.56
2023-01-28T09:05:23.730Z,97974.22
2023-01-28T09:07:51.804Z,97971.91
2023-01-28T09:10:20.296Z,97972.13
2023-01-28T09:12:48.218Z,97965.69
2023-01-28T09:15:18.432Z,97960.28
2023-01-28T09:17:46.855Z,97963.41
2023-01-28T09:20:15.099Z,97956.97
2023-01-28T09:22:42.914Z,97964.84
2023-01-28T09:25:10.925Z,97965.06
2023-01-28T09:27:38.807Z,97974.81
2023-01-28T09:30:07.632Z,97978.34
2023-01-28T09:32:37.100Z,97976.66
2023-01-28T09:35:06.148Z,97975.22
2023-01-28T09:37:34.416Z,97979.34
2023-01-28T09:40:02.031Z,97986.63
2023-01-28T09:42:51.863Z,97970.44
2023-01-28T09:45:22.443Z,97976.44
2023-01-28T09:47:53.239Z,97979.34
2023-01-28T09:50:31.392Z,97981.25
2023-01-28T09:53:05.337Z,97984.53
2023-01-28T09:55:35.939Z,97990.81
2023-01-28T09:58:10.289Z,97994.53
2023-01-28T10:00:42.767Z,98003.63
2023-01-28T10:03:28.974Z,98001.59
2023-01-28T10:06:04.946Z,98009.88
2023-01-28T10:08:46.534Z,98007.81
2023-01-28T10:11:21.972Z,98006.56
2023-01-28T10:13:54.926Z,97995.78
2023-01-28T10:16:32.418Z,98010.50
2023-01-28T10:19:07.461Z,98009.28
2023-01-28T10:21:41.632Z,98014.06
2023-01-28T10:24:16.359Z,98019.44
2023-01-28T10:26:45.236Z,98026.50
2023-01-28T10:29:17.464Z,98028.34
2023-01-28T10:31:52.912Z,98043.50
2023-01-28T10:34:23.043Z,98051.81
2023-01-28T10:36:51.875Z,98048.91
2023-01-28T10:39:22.935Z,98050.78
2023-01-28T10:41:58.003Z,98045.38
2023-01-28T10:44:34.848Z,98042.69
2023-01-28T10:47:09.422Z,98042.69
2023-01-28T10:49:44.723Z,98044.34
2023-01-28T10:52:13.365Z,98040.78
2023-01-28T10:54:41.005Z,98037.28
2023-01-28T10:57:13.149Z,98034.59
2023-01-28T10:59:41.878Z,98035.63
2023-01-28T11:02:27.014Z,98044.53
2023-01-28T11:05:05.768Z,98043.09
2023-01-28T11:07:34.244Z,98043.50
2023-01-28T11:10:02.716Z,98047.03
2023-01-28T11:12:31.226Z,98038.34
2023-01-28T11:14:59.788Z,98045.59
2023-01-28T11:17:30.595Z,98035.00
2023-01-28T11:20:00.974Z,98041.03
2023-01-28T11:22:34.117Z,98043.72
2023-01-28T11:25:03.341Z,98041.03
2023-01-28T11:27:31.919Z,98036.84
2023-01-28T11:30:02.098Z,98038.69
2023-01-28T11:32:30.708Z,98046.44
2023-01-28T11:34:58.959Z,98048.06
2023-01-28T11:37:28.270Z,98048.91
2023-01-28T11:40:19.008Z,98063.81
2023-01-28T11:42:49.996Z,98053.47
2023-01-28T11:45:19.166Z,98049.50
2023-01-28T11:47:59.670Z,98054.69
2023-01-28T11:50:37.024Z,98060.97
2023-01-28T11:53:32.153Z,98064.25
2023-01-28T11:56:16.068Z,98066.34
2023-01-28T11:58:53.671Z,98059.91
2023-01-28T12:01:29.922Z,98060.97
2023-01-28T12:04:21.228Z,98057.38
2023-01-28T12:07:00.231Z,98069.66
2023-01-28T12:09:36.330Z,98074.59
2023-01-28T12:12:22.688Z,98080.66
2023-01-28T12:15:23.177Z,98075.25
2023-01-28T12:18:07.925Z,98082.69
2023-01-28T12:20:42.126Z,98087.47
2023-01-28T12:23:30.972Z,98086.03
2023-01-28T12:26:09.095Z,98090.78
2023-01-28T12:29:06.293Z,98088.94
2023-01-28T12:32:03.772Z,98080.19
2023-01-28T12:35:07.181Z,98079.59
2023-01-28T12:37:51.353Z,98072.94
2023-01-28T12:40:37.873Z,98070.25
2023-01-28T12:43:12.816Z,98059.25
2023-01-28T12:45:46.233Z,98060.97
2023-01-28T12:48:20.326Z,98065.47
2023-01-28T12:50:53.557Z,98057.59
2023-01-28T12:53:28.612Z,98064.66
2023-01-28T12:56:00.949Z,98056.97
2023-01-28T12:58:39.474Z,98070.47
2023-01-28T13:01:12.548Z,98073.56
2023-01-28T13:03:48.562Z,98085.22
2023-01-28T13:06:22.205Z,98091.63
2023-01-28T13:08:50.355Z,98098.03
2023-01-28T13:11:18.937Z,98098.03
2023-01-28T13:13:47.685Z,98097.03
2023-01-28T13:16:19.362Z,98090.63
2023-01-28T13:18:49.489Z,98079.38
2023-01-28T13:21:40.188Z,98088.94
2023-01-28T13:24:31.752Z,98102.63
2023-01-28T13:27:10.335Z,98110.72
2023-01-28T13:29:37.994Z,98109.25
2023-01-28T13:32:32.004Z,98114.22
2023-01-28T13:35:02.556Z,98107.41
2023-01-28T13:37:34.261Z,98109.06
2023-01-28T13:40:09.541Z,98109.69
2023-01-28T13:42:37.695Z,98107.19
2023-01-28T13:45:23.464Z,98111.75
2023-01-28T13:47:58.748Z,98107.19
2023-01-28T13:50:40.854Z,98113.63
2023-01-28T13:53:24.251Z,98113.63
2023-01-28T13:55:55.996Z,98123.97
2023-01-28T13:58:55.061Z,98117.97
2023-01-28T14:01:58.817Z,98107.41
2023-01-28T14:04:57.340Z,98103.88
2023-01-28T14:07:55.206Z,98099.09
2023-01-28T14:10:49.417Z,98099.31
2023-01-28T14:13:48.633Z,98097.44
2023-01-28T14:16:43.970Z,98102.22
2023-01-28T14:19:13.939Z,98109.47
2023-01-28T14:21:43.022Z,98110.09
2023-01-28T14:24:17.955Z,98111.34
2023-01-28T14:26:57.887Z,98104.91
2023-01-28T14:29:47.209Z,98111.34
2023-01-28T14:32:18.294Z,98097.25
2023-01-28T14:34:47.313Z,98095.59
2023-01-28T14:37:20.951Z,98107.59
2023-01-28T14:39:52.429Z,98106.75
2023-01-28T14:42:23.657Z,98108.00
2023-01-28T14:45:07.982Z,98103.25
2023-01-28T14:48:08.138Z,98101.78
2023-01-28T14:50:53.286Z,98105.31
2023-01-28T14:53:41.744Z,98103.25
2023-01-28T14:56:20.131Z,98101.75
2023-01-28T14:58:53.342Z,98098.19
2023-01-28T15:01:22.633Z,98099.06
2023-01-28T15:03:50.453Z,98101.38
2023-01-28T15:06:21.302Z,98112.78
2023-01-28T15:08:50.510Z,98107.00
2023-01-28T15:11:22.010Z,98105.31
2023-01-28T15:13:53.502Z,98102.41
2023-01-28T15:16:23.985Z,98109.69
2023-01-28T15:18:53.503Z,98106.91
2023-01-28T15:21:23.169Z,98115.25
2023-01-28T15:23:56.005Z,98111.53
2023-01-28T15:26:26.488Z,98118.41
2023-01-28T15:28:55.900Z,98121.91
2023-01-28T15:31:25.860Z,98117.75
2023-01-28T15:34:03.599Z,98110.31
2023-01-28T15:36:32.322Z,98107.38
2023-01-28T15:39:01.884Z,98100.13
2023-01-28T15:41:35.165Z,98097.00
2023-01-28T15:44:04.195Z,98101.59
2023-01-28T15:46:32.572Z,98108.00
2023-01-28T15:49:02.300Z,98113.63
2023-01-28T15:51:32.630Z,98107.19
2023-01-28T15:54:04.499Z,98111.13
2023-01-28T15:56:32.183Z,98098.66
2023-01-28T15:59:10.248Z,98097.44
2023-01-28T16:01:38.117Z,98095.34
2023-01-28T16:04:07.097Z,98097.22
2023-01-28T16:06:37.853Z,98098.06
2023-01-28T16:09:17.425Z,98099.09
2023-01-28T16:11:45.521Z,98097.00
2023-01-28T16:14:24.550Z,98101.59
2023-01-28T16:16:53.562Z,98102.41
2023-01-28T16:19:31.317Z,98105.94
2023-01-28T16:21:59.769Z,98111.53
2023-01-28T16:24:30.798Z,98112.38
2023-01-28T16:26:59.491Z,98113.19
2023-01-28T16:29:30.614Z,98113.19
2023-01-28T16:31:59.739Z,98111.34
2023-01-28T16:34:27.675Z,98114.84
2023-01-28T16:36:58.475Z,98114.84
2023-01-28T16:39:26.132Z,98116.50
2023-01-28T16:41:55.498Z,98113.00
2023-01-28T16:44:23.686Z,98121.47
2023-01-28T16:46:51.582Z,98115.69
2023-01-28T16:49:22.098Z,98111.34
2023-01-28T16:51:50.031Z,98110.06
2023-01-28T16:54:17.759Z,98117.16
2023-01-28T16:56:46.658Z,98119.81
2023-01-28T16:59:16.543Z,98122.75
2023-01-28T17:01:44.813Z,98126.88
2023-01-28T17:04:13.441Z,98121.91
2023-01-28T17:06:42.329Z,98126.69
2023-01-28T17:09:10.509Z,98134.34
2023-01-28T17:11:38.159Z,98134.34
2023-01-28T17:14:05.793Z,98132.69
2023-01-28T17:16:35.109Z,98137.06
2023-01-28T17:19:02.622Z,98140.16
2023-01-28T17:21:30.477Z,98141.00
2023-01-28T17:23:59.451Z,98137.28
2023-01-28T17:26:27.593Z,98135.38
2023-01-28T17:28:55.766Z,98135.63
2023-01-28T17:31:23.986Z,98139.97
2023-01-28T17:33:57.584Z,98126.50
2023-01-28T17:36:25.969Z,98125.03
2023-01-28T17:38:54.443Z,98131.47
2023-01-28T17:41:22.741Z,98128.16
2023-01-28T17:43:54.368Z,98135.81
2023-01-28T17:46:24.382Z,98133.97
2023-01-28T17:48:52.488Z,98127.31
2023-01-28T17:51:22.241Z,98146.84
2023-01-28T17:53:52.597Z,98138.09
2023-01-28T17:56:22.030Z,98141.81
2023-01-28T17:58:50.644Z,98139.13
2023-01-28T18:01:18.851Z,98143.47
2023-01-28T18:03:47.048Z,98135.63
2023-01-28T18:06:15.184Z,98138.94
2023-01-28T18:08:44.673Z,98135.38
2023-01-28T18:11:15.093Z,98132.28
2023-01-28T18:13:43.800Z,98130.41
2023-01-28T18:16:14.125Z,98132.06
2023-01-28T18:18:42.341Z,98118.41
2023-01-28T18:21:21.256Z,98116.94
2023-01-28T18:23:52.313Z,98126.88
2023-01-28T18:26:20.419Z,98124.41
2023-01-28T18:28:48.523Z,98130.22
2023-01-28T18:31:16.612Z,98129.38
2023-01-28T18:33:44.278Z,98133.72
2023-01-28T18:36:12.008Z,98130.63
2023-01-28T18:38:40.332Z,98132.28
2023-01-28T18:41:09.406Z,98129.56
2023-01-28T18:43:37.096Z,98126.88
2023-01-28T18:46:11.367Z,98123.38
2023-01-28T18:48:39.184Z,98130.22
2023-01-28T18:51:09.221Z,98121.47
2023-01-28T18:53:40.292Z,98127.72
2023-01-28T18:56:09.442Z,98126.50
2023-01-28T18:58:36.998Z,98127.91
2023-01-28T19:01:08.148Z,98134.97
2023-01-28T19:03:36.310Z,98134.34
2023-01-28T19:06:05.468Z,98135.59
2023-01-28T19:08:33.365Z,98140.59
2023-01-28T19:11:00.906Z,98138.09
2023-01-28T19:13:29.924Z,98140.16
2023-01-28T19:15:57.495Z,98139.34
2023-01-28T19:18:24.964Z,98134.16
2023-01-28T19:20:52.484Z,98139.56
2023-01-28T19:23:20.175Z,98144.75
2023-01-28T19:25:47.905Z,98132.69
2023-01-28T19:28:15.653Z,98143.91
2023-01-28T19:30:45.217Z,98142.44
2023-01-28T19:33:12.928Z,98146.78
2023-01-28T19:35:40.415Z,98144.09
2023-01-28T19:38:09.429Z,98145.75
2023-01-28T19:40:36.997Z,98136.19
2023-01-28T19:43:04.700Z,98141.41
2023-01-28T19:45:32.348Z,98141.63
2023-01-28T19:48:01.409Z,98144.94
2023-01-28T19:50:28.979Z,98145.75
2023-01-28T19:52:56.549Z,98131.88
2023-01-28T19:55:24.397Z,98138.72
2023-01-28T19:57:51.976Z,98135.81
2023-01-28T20:00:19.982Z,98142.06
2023-01-28T20:02:50.888Z,98140.59
2023-01-28T20:05:19.915Z,98134.78
2023-01-28T20:07:47.417Z,98139.31
2023-01-28T20:10:15.225Z,98131.47
2023-01-28T20:12:42.823Z,98131.47
2023-01-28T20:15:11.410Z,98147.22
2023-01-28T20:17:38.988Z,98141.41
2023-01-28T20:20:07.761Z,98141.41
2023-01-28T20:22:36.951Z,98145.38
2023-01-28T20:25:05.449Z,98145.56
2023-01-28T20:27:33.288Z,98143.06
2023-01-28T20:30:00.940Z,98151.78
2023-01-28T20:32:28.647Z,98144.28
2023-01-28T20:34:56.293Z,98150.53
2023-01-28T20:37:23.871Z,98146.19
2023-01-28T20:39:52.932Z,98147.84
2023-01-28T20:42:20.528Z,98141.59
2023-01-28T20:44:48.124Z,98143.47
2023-01-28T20:47:15.923Z,98146.78
2023-01-28T20:49:43.448Z,98149.69
2023-01-28T20:52:11.344Z,98153.41
2023-01-28T20:54:39.036Z,98155.91
2023-01-28T20:57:08.153Z,98155.50
2023-01-28T20:59:35.745Z,98166.09
2023-01-28T21:02:03.417Z,98165.84
2023-01-28T21:04:31.013Z,98158.38
2023-01-28T21:06:58.692Z,98158.38
2023-01-28T21:09:26.282Z,98156.13
2023-01-28T21:11:53.842Z,98148.88
2023-01-28T21:14:23.454Z,98155.91
2023-01-28T21:16:50.988Z,98153.84
2023-01-28T21:19:19.767Z,98167.75
2023-01-28T21:21:47.288Z,98160.88
2023-01-28T21:24:14.922Z,98168.13
2023-01-28T21:26:42.576Z,98159.44
2023-01-28T21:29:10.457Z,98169.16
2023-01-28T21:31:39.494Z,98153.41
2023-01-28T21:34:07.530Z,98157.38
2023-01-28T21:36:35.423Z,98155.06
2023-01-28T21:39:04.022Z,98161.69
2023-01-28T21:41:32.301Z,98159.22
2023-01-28T21:44:00.104Z,98158.81
2023-01-28T21:46:29.443Z,98157.56
2023-01-28T21:48:59.927Z,98156.31
2023-01-28T21:51:28.386Z,98165.03
2023-01-28T21:53:56.306Z,98162.13
2023-01-28T21:56:23.928Z,98164.00
2023-01-28T21:58:51.445Z,98167.50
2023-01-28T22:01:18.944Z,98162.09
2023-01-28T22:03:46.584Z,98165.44
2023-01-28T22:06:15.882Z,98164.44
2023-01-28T22:08:43.986Z,98159.84
2023-01-28T22:11:12.068Z,98158.38
2023-01-28T22:13:39.822Z,98156.09
2023-01-28T22:16:08.238Z,98161.50
2023-01-28T22:18:36.310Z,98166.09
2023-01-28T22:21:06.264Z,98159.66
2023-01-28T22:23:35.777Z,98159.84
2023-01-28T22:26:03.335Z,98166.47
2023-01-28T22:28:31.479Z,98163.16
2023-01-28T22:31:06.237Z,98152.59
2023-01-28T22:33:34.004Z,98143.44
2023-01-28T22:36:04.979Z,98138.28
2023-01-28T22:38:32.645Z,98147.41
2023-01-28T22:41:07.130Z,98139.13
2023-01-28T22:43:35.028Z,98146.78
2023-01-28T22:46:03.546Z,98141.16
2023-01-28T22:48:31.887Z,98136.63
2023-01-28T22:51:02.141Z,98135.56
2023-01-28T22:53:30.163Z,98139.31
2023-01-28T22:55:58.196Z,98143.84
2023-01-28T22:58:27.991Z,98144.72
2023-01-28T23:00:56.605Z,98140.53
2023-01-28T23:03:24.405Z,98146.13
2023-01-28T23:05:51.996Z,98150.09
2023-01-28T23:08:19.461Z,98153.84
2023-01-28T23:10:49.207Z,98144.91
2023-01-28T23:13:17.111Z,98140.34
2023-01-28T23:15:47.065Z,98146.97
2023-01-28T23:18:18.965Z,98134.97
2023-01-28T23:20:46.450Z,98143.03
2023-01-28T23:23:16.150Z,98141.38
2023-01-28T23:25:43.258Z,98137.84
2023-01-28T23:28:11.016Z,98128.72
2023-01-28T23:30:38.717Z,98128.28
2023-01-28T23:33:07.878Z,98130.38
2023-01-28T23:35:35.658Z,98132.03
2023-01-28T23:38:03.338Z,98133.50
2023-01-28T23:40:30.881Z,98140.72
2023-01-28T23:42:58.401Z,98123.31
2023-01-28T23:45:26.009Z,98128.09
2023-01-28T23:47:53.483Z,98123.56
2023-01-28T23:50:22.438Z,98130.59
2023-01-28T23:52:50.450Z,98130.19
2023-01-28T23:55:18.054Z,98135.16
2023-01-28T23:57:45.636Z,98132.88
